Accueil
METAR-TAF:

METAR-TAF

Aéroports :

Wakefield Municipal Airport

Wakefield, Virginie, États-Unis

latitude: 36-58-53N, longitude: 077-00-04W, altitude: 34 m

Observation

Le bulletin a été fait il y a 1 heure et 1 minutes, à 21:54 UTC
Vent 9 kt de ouest/sud-ouest
Température 10°C
Humidité 37%
Pression 1013 hPa
Visibilité: 16.1 km
Quelques nuages à une hauteur de 7500 ft
Nuages fragmentés à une hauteur de 10000 ft

METAR: KAKQ 282154Z AUTO 24009KT 10SM FEW075 BKN100 10/M04 A2991 RMK AO2 SLP129 T01001044

Heure: 17:55 (22:55 UTC)


TAF: absent

Observations et prévisions météorologiques de plus de 4000 aéroports (messages METAR et TAF).

Les stations disponibles sont représentées par des disques jaunes et rouges sur la carte.

Passer la souris dessus pour voir le nom de la station.

Cliquer dessus pour voir les observations et prévisions météorologiques.

Pour changer de carte: cliquez sur les boutons verts avec une croix noire pour zoomer, sur le bouton vert avec un tiret pour effectuer un zoom arrière, ou sur les flèches vertes pour les cartes adjacentes.


METAR-TAF: